Terminal Aerodrome Forecast
Issued by NWS

Home | Current Version | Previous Version | Text Only | Print | Product List | Glossary On
Versions: 1 2 3 4 5 6 7 8 9 10 11 12 13 14 15
000
FTUS45 KTFX 232300
TAFGTF
TAF
KGTF 232320Z 2400/2424 23014KT P6SM SCT060 BKN100
     FM240800 26012KT P6SM VCSH OVC050
     FM241700 25012KT P6SM SCT080=

USA.gov is the U.S. government's official web portal to all federal, state and local government web resources and services.